Time;durP1;ratioP1;P1;durP2;ratioP2;P2;SDS_P1;SDS_P2;PMS_P1;PMS_P2;Temp;Humidity;BMP_temperature;BMP_pressure;BME280_temperature;BME280_humidity;BME280_pressure;Samples;Min_cycle;Max_cycle;Signal;HPM_P1;HPM_P2
2023/10/15 00:00:01;;;;;;;5.50;2.60;;;;;;;10.55;56.69;101116.44;688516;28;1286;-93
2023/10/15 00:00:22;;;;;;;5.38;2.50;;;;;;;10.54;56.98;101104.22;691207;28;1215;-92
2023/10/15 00:00:43;;;;;;;6.85;2.47;;;;;;;10.57;56.77;101114.75;691049;28;1208;-93
2023/10/15 00:01:06;;;;;;;6.72;2.58;;;;;;;10.53;56.43;101097.22;693365;28;1180;-94
2023/10/15 00:01:26;;;;;;;7.35;2.58;;;;;;;10.58;56.39;101103.50;691264;28;1268;-92
2023/10/15 00:01:47;;;;;;;6.03;2.40;;;;;;;10.61;56.53;101108.81;682998;28;1149;-94
2023/10/15 00:02:10;;;;;;;5.88;2.50;;;;;;;10.57;56.04;101112.13;690537;28;1310;-94
2023/10/15 00:02:31;;;;;;;4.75;2.53;;;;;;;10.55;56.37;101104.28;690992;28;1248;-92
2023/10/15 00:02:52;;;;;;;6.50;2.42;;;;;;;10.49;56.52;101097.94;688396;28;1201;-93
2023/10/15 00:03:13;;;;;;;7.53;2.30;;;;;;;10.52;56.32;101103.28;688330;28;1923;-93
2023/10/15 00:03:34;;;;;;;10.23;2.50;;;;;;;10.50;56.52;101097.16;688632;28;1233;-94
2023/10/15 00:03:55;;;;;;;9.80;2.95;;;;;;;10.59;56.45;101102.66;693809;28;1394;-93
2023/10/15 00:04:16;;;;;;;11.48;3.00;;;;;;;10.57;56.40;101109.53;685746;28;1154;-93
2023/10/15 00:04:37;;;;;;;10.45;2.97;;;;;;;10.55;56.73;101106.00;691130;28;1266;-93
2023/10/15 00:05:01;;;;;;;12.68;3.03;;;;;;;10.48;56.61;101099.69;688192;28;1149;-95
2023/10/15 00:05:25;;;;;;;9.45;2.80;;;;;;;10.56;56.43;101107.75;691197;28;1224;-92
2023/10/15 00:05:46;;;;;;;8.90;2.55;;;;;;;10.54;56.22;101099.00;688614;28;1317;-95
2023/10/15 00:06:06;;;;;;;5.82;2.45;;;;;;;10.55;56.45;101100.78;691108;28;1246;-94
2023/10/15 00:06:27;;;;;;;7.80;2.70;;;;;;;10.58;56.39;101115.66;691292;28;1277;-94
2023/10/15 00:06:49;;;;;;;6.30;2.60;;;;;;;10.53;56.31;101107.66;696317;28;1200;-90
2023/10/15 00:07:11;;;;;;;4.55;2.33;;;;;;;10.51;56.36;101098.91;691147;28;1382;-93
2023/10/15 00:07:32;;;;;;;7.20;2.60;;;;;;;10.50;56.42;101099.75;690961;28;1193;-93
2023/10/15 00:07:53;;;;;;;7.78;2.60;;;;;;;10.48;56.31;101090.97;693536;28;1177;-92
2023/10/15 00:08:14;;;;;;;9.05;3.00;;;;;;;10.47;56.42;101097.03;691089;28;1044;-93
2023/10/15 00:08:34;;;;;;;7.18;2.70;;;;;;;10.55;55.95;101111.22;688373;28;1248;-94
2023/10/15 00:08:56;;;;;;;6.53;2.90;;;;;;;10.51;56.43;101099.78;691041;28;1228;-93
2023/10/15 00:09:16;;;;;;;5.50;2.70;;;;;;;10.55;56.11;101111.22;690950;28;1266;-93
2023/10/15 00:09:39;;;;;;;5.18;2.75;;;;;;;10.52;56.30;101105.91;690953;28;1505;-95
2023/10/15 00:10:00;;;;;;;4.97;2.65;;;;;;;10.56;56.07;101110.38;691224;28;1284;-94
2023/10/15 00:10:22;;;;;;;5.18;2.67;;;;;;;10.50;56.35;101107.59;688099;28;1294;-94
2023/10/15 00:10:43;;;;;;;5.30;2.40;;;;;;;10.49;56.28;101095.34;685817;28;1325;-93
2023/10/15 00:11:12;;;;;;;4.43;2.33;;;;;;;10.47;56.44;101102.25;685596;28;1229;-95
2023/10/15 00:11:33;;;;;;;5.45;2.67;;;;;;;10.46;56.54;101100.47;685858;28;1433;-93
2023/10/15 00:11:54;;;;;;;5.22;2.75;;;;;;;10.39;56.43;101089.81;693755;28;1327;-94
2023/10/15 00:12:15;;;;;;;5.47;2.53;;;;;;;10.40;56.79;101088.09;693961;28;1409;-93
2023/10/15 00:12:37;;;;;;;11.37;2.63;;;;;;;10.39;56.43;101087.22;686080;28;1258;-95
2023/10/15 00:12:59;;;;;;;10.77;2.80;;;;;;;10.41;56.30;101093.38;693978;28;1275;-93
2023/10/15 00:13:20;;;;;;;13.80;2.90;;;;;;;10.36;56.24;101086.22;691125;28;1268;-94
2023/10/15 00:13:41;;;;;;;7.18;2.70;;;;;;;10.43;56.24;101100.38;686084;28;1501;-94
2023/10/15 00:14:03;;;;;;;8.75;2.55;;;;;;;10.44;56.53;101108.22;688326;28;1294;-94
2023/10/15 00:14:24;;;;;;;6.38;2.42;;;;;;;10.43;56.30;101098.63;693200;28;1334;-91
2023/10/15 00:14:44;;;;;;;8.00;2.60;;;;;;;10.44;56.52;101096.94;685576;28;1389;-92
2023/10/15 00:15:08;;;;;;;8.75;2.70;;;;;;;10.39;56.39;101092.44;688323;28;1282;-93
2023/10/15 00:15:29;;;;;;;8.05;2.70;;;;;;;10.46;56.46;101105.69;691175;28;1308;-94
2023/10/15 00:15:51;;;;;;;8.60;2.80;;;;;;;10.49;56.50;101108.38;691269;28;1288;-95
2023/10/15 00:16:22;;;;;;;5.90;2.60;;;;;;;10.46;56.23;101106.59;688565;28;1206;-93
2023/10/15 00:16:42;;;;;;;5.50;2.40;;;;;;;10.50;56.29;101108.44;691121;28;1558;-94
2023/10/15 00:17:05;;;;;;;7.00;2.70;;;;;;;10.38;56.32;101098.47;691330;28;1148;-96
2023/10/15 00:17:27;;;;;;;5.80;2.67;;;;;;;10.39;56.31;101100.25;686286;28;1319;-93
2023/10/15 00:17:53;;;;;;;6.15;2.65;;;;;;;10.47;56.36;101113.56;688991;28;1653;-94
2023/10/15 00:18:14;;;;;;;5.35;2.60;;;;;;;10.45;56.48;101119.56;693905;28;1146;-93
2023/10/15 00:18:36;;;;;;;4.80;2.60;;;;;;;10.39;56.32;101105.47;694145;28;1218;-93
2023/10/15 00:18:57;;;;;;;8.50;2.90;;;;;;;10.36;56.37;101105.38;694022;28;1309;-95
2023/10/15 00:19:18;;;;;;;8.25;2.90;;;;;;;10.37;56.12;101098.41;693914;28;1331;-94
2023/10/15 00:19:39;;;;;;;8.48;2.92;;;;;;;10.41;56.32;101101.22;683202;28;1208;-93
2023/10/15 00:20:02;;;;;;;5.82;2.85;;;;;;;10.43;56.13;101106.47;693891;28;1324;-93
2023/10/15 00:20:26;;;;;;;9.30;3.08;;;;;;;10.32;56.33;101087.84;687731;28;1275;-96
2023/10/15 00:20:47;;;;;;;13.32;3.30;;;;;;;10.36;56.44;101104.47;688829;28;1437;-93
2023/10/15 00:21:12;;;;;;;13.75;3.30;;;;;;;10.38;56.44;101108.91;689081;28;1139;-94
2023/10/15 00:21:32;;;;;;;14.45;3.00;;;;;;;10.37;55.92;101104.53;688573;28;1299;-93
2023/10/15 00:21:53;;;;;;;14.60;2.80;;;;;;;10.37;56.49;101112.38;691221;28;1308;-94
2023/10/15 00:22:14;;;;;;;14.60;2.80;;;;;;;10.35;56.29;101113.16;691228;28;1484;-96
2023/10/15 00:22:36;;;;;;;8.88;2.60;;;;;;;10.33;56.36;101110.47;688679;28;1192;-94
2023/10/15 00:22:58;;;;;;;9.73;2.92;;;;;;;10.25;56.60;101106.72;691432;28;1342;-93
2023/10/15 00:23:19;;;;;;;12.63;2.90;;;;;;;10.21;56.38;101089.16;686001;28;1969;-92
2023/10/15 00:23:44;;;;;;;8.95;2.53;;;;;;;10.26;56.64;101104.16;691383;28;1189;-92
2023/10/15 00:24:07;;;;;;;9.65;2.55;;;;;;;10.29;56.61;101103.38;691294;28;1389;-94
2023/10/15 00:24:27;;;;;;;6.78;2.70;;;;;;;10.35;56.63;101111.44;691263;28;1343;-94
2023/10/15 00:24:48;;;;;;;5.60;2.50;;;;;;;10.25;56.44;101096.28;688474;28;1027;-96
2023/10/15 00:25:12;;;;;;;5.90;2.30;;;;;;;10.23;56.64;101092.75;694203;28;1220;-93
2023/10/15 00:25:38;;;;;;;7.75;2.67;;;;;;;10.24;56.80;101103.22;691121;28;1310;-94
2023/10/15 00:25:59;;;;;;;6.43;2.70;;;;;;;10.24;56.83;101098.03;688606;28;1321;-93
2023/10/15 00:26:21;;;;;;;9.10;2.60;;;;;;;10.28;57.08;101107.72;688083;28;1263;-93
2023/10/15 00:26:46;;;;;;;10.63;2.50;;;;;;;10.28;56.81;101101.63;688805;28;1302;-92
2023/10/15 00:27:07;;;;;;;12.30;2.50;;;;;;;10.25;56.72;101096.28;690869;28;1353;-93
2023/10/15 00:27:29;;;;;;;9.37;2.60;;;;;;;10.35;56.89;101113.16;688609;28;1291;-95
2023/10/15 00:27:59;;;;;;;10.65;2.88;;;;;;;10.27;56.84;101097.25;691416;28;1516;-94
2023/10/15 00:28:19;;;;;;;11.93;3.00;;;;;;;10.31;57.03;101098.25;694079;28;1360;-94
2023/10/15 00:28:44;;;;;;;11.32;2.92;;;;;;;10.41;56.78;101114.25;688590;28;1121;-94
2023/10/15 00:29:08;;;;;;;10.48;2.85;;;;;;;10.34;56.76;101091.41;696811;28;1197;-95
2023/10/15 00:29:29;;;;;;;7.68;2.60;;;;;;;10.40;56.75;101099.41;696737;28;1322;-94
2023/10/15 00:29:50;;;;;;;5.03;2.20;;;;;;;10.34;56.69;101091.41;693898;28;1195;-93
2023/10/15 00:30:14;;;;;;;8.13;2.58;;;;;;;10.32;56.63;101085.22;694161;28;1236;-94
2023/10/15 00:30:37;;;;;;;9.25;2.50;;;;;;;10.39;56.83;101091.56;688052;28;1216;-94
2023/10/15 00:31:00;;;;;;;10.65;2.90;;;;;;;10.47;56.62;101103.13;691147;28;1157;-92
2023/10/15 00:31:22;;;;;;;11.40;3.00;;;;;;;10.39;56.30;101087.22;690404;28;1426;-93
2023/10/15 00:31:43;;;;;;;9.35;3.00;;;;;;;10.41;56.38;101097.72;691615;28;1296;-93
2023/10/15 00:32:05;;;;;;;7.20;2.70;;;;;;;10.38;55.99;101095.00;691395;28;1237;-94
2023/10/15 00:32:26;;;;;;;8.48;2.88;;;;;;;10.37;56.56;101101.94;697080;28;1228;-94
2023/10/15 00:32:52;;;;;;;8.10;2.70;;;;;;;10.33;56.29;101100.03;697079;28;1236;-93
2023/10/15 00:33:13;;;;;;;6.80;2.40;;;;;;;10.27;56.25;101078.97;691175;28;1276;-93
2023/10/15 00:33:34;;;;;;;5.80;2.30;;;;;;;10.32;56.42;101098.28;688903;28;1409;-95
2023/10/15 00:33:55;;;;;;;7.47;2.80;;;;;;;10.27;56.21;101090.28;699913;28;1145;-94
2023/10/15 00:34:16;;;;;;;7.45;2.80;;;;;;;10.30;56.26;101096.47;693694;28;1335;-94
2023/10/15 00:34:37;;;;;;;6.95;2.75;;;;;;;10.31;56.53;101101.72;694386;28;1299;-92
2023/10/15 00:34:58;;;;;;;6.80;2.47;;;;;;;10.26;56.47;101100.69;694069;28;1147;-92
2023/10/15 00:35:19;;;;;;;7.97;2.75;;;;;;;10.23;56.59;101088.44;694439;28;1236;-93
2023/10/15 00:35:49;;;;;;;8.15;3.10;;;;;;;10.34;56.49;101108.75;692606;28;1330;-94
2023/10/15 00:36:13;;;;;;;5.32;2.85;;;;;;;10.25;56.45;101091.97;696143;28;1317;-94
2023/10/15 00:36:34;;;;;;;7.00;2.78;;;;;;;10.28;56.87;101099.00;688516;28;1249;-91
2023/10/15 00:36:55;;;;;;;10.82;2.88;;;;;;;10.31;56.81;101095.63;691760;28;1191;-94
2023/10/15 00:37:16;;;;;;;11.05;2.72;;;;;;;10.26;56.56;101093.72;692693;28;1424;-93
2023/10/15 00:37:56;;;;;;;8.20;2.47;;;;;;;10.34;56.90;101100.94;691069;28;1291;-93
2023/10/15 00:38:17;;;;;;;4.60;2.03;;;;;;;10.34;56.89;101096.63;694065;28;1372;-93
2023/10/15 00:38:38;;;;;;;4.57;2.38;;;;;;;10.38;56.56;101097.63;692785;28;1424;-94
2023/10/15 00:38:59;;;;;;;5.97;2.60;;;;;;;10.33;56.45;101079.16;692141;28;1366;-94
2023/10/15 00:39:20;;;;;;;8.17;2.70;;;;;;;10.41;56.68;101108.13;690314;28;1172;-93
2023/10/15 00:39:41;;;;;;;7.88;2.47;;;;;;;10.28;56.38;101091.19;693709;28;1218;-93
2023/10/15 00:40:04;;;;;;;8.35;2.50;;;;;;;10.33;56.62;101100.03;691928;28;1121;-92
2023/10/15 00:40:26;;;;;;;6.82;2.40;;;;;;;10.26;56.42;101087.66;689096;28;1269;-95
2023/10/15 00:40:51;;;;;;;5.88;2.60;;;;;;;10.35;56.50;101108.81;694113;28;1510;-93
2023/10/15 00:41:13;;;;;;;6.28;2.50;;;;;;;10.29;56.64;101098.19;694086;28;1383;-94
2023/10/15 00:41:34;;;;;;;6.68;2.35;;;;;;;10.33;56.52;101100.03;691478;28;1624;-93
2023/10/15 00:41:55;;;;;;;12.55;2.55;;;;;;;10.36;56.68;101102.78;688677;28;1164;-93
2023/10/15 00:42:16;;;;;;;15.52;2.48;;;;;;;10.32;56.63;101087.84;690528;28;1460;-94
2023/10/15 00:42:39;;;;;;;15.20;2.72;;;;;;;10.38;56.55;101095.88;688399;28;1335;-93
2023/10/15 00:43:01;;;;;;;9.70;2.60;;;;;;;10.25;56.60;101091.06;694123;28;1379;-94
2023/10/15 00:43:22;;;;;;;9.63;2.88;;;;;;;10.33;56.67;101092.22;691018;28;2018;-94
2023/10/15 00:43:56;;;;;;;9.57;3.00;;;;;;;10.34;56.52;101087.91;685827;28;1218;-94
2023/10/15 00:44:17;;;;;;;6.90;2.75;;;;;;;10.35;56.15;101101.00;693779;28;1278;-94
2023/10/15 00:44:37;;;;;;;7.13;2.50;;;;;;;10.34;56.44;101100.94;691136;28;1520;-93
2023/10/15 00:44:58;;;;;;;7.90;2.40;;;;;;;10.35;55.96;101102.72;688505;28;1319;-93
2023/10/15 00:45:39;;;;;;;7.13;2.30;;;;;;;10.29;56.05;101106.00;693692;28;1164;-94
2023/10/15 00:46:06;;;;;;;4.15;2.20;;;;;;;10.14;56.31;101088.94;696450;28;1239;-92
2023/10/15 00:46:29;;;;;;;6.70;2.40;;;;;;;10.21;56.34;101103.06;685685;28;1280;-94
2023/10/15 00:46:56;;;;;;;7.70;2.60;;;;;;;10.20;56.36;101103.03;688349;28;1251;-94
2023/10/15 00:47:19;;;;;;;6.75;2.50;;;;;;;10.23;56.47;101124.03;685728;28;1272;-93
2023/10/15 00:47:40;;;;;;;8.32;2.30;;;;;;;10.14;56.27;101115.03;688393;28;1350;-94
2023/10/15 00:48:07;;;;;;;8.95;2.63;;;;;;;10.07;56.49;101101.72;688686;28;1351;-93
2023/10/15 00:48:33;;;;;;;7.95;2.80;;;;;;;10.15;56.58;101116.78;696517;28;1299;-94
2023/10/15 00:49:09;;;;;;;5.80;2.70;;;;;;;10.15;56.25;101122.00;693737;28;1280;-93
2023/10/15 00:49:31;;;;;;;4.95;3.00;;;;;;;10.16;56.54;101122.91;685722;28;1249;-94
2023/10/15 00:49:52;;;;;;;6.25;3.15;;;;;;;10.06;56.59;101113.88;688589;28;1411;-93
2023/10/15 00:50:14;;;;;;;6.20;2.85;;;;;;;10.12;56.43;101132.34;693900;28;1179;-94
2023/10/15 00:50:40;;;;;;;5.45;2.70;;;;;;;10.10;56.65;101130.50;691214;28;1288;-94
2023/10/15 00:51:09;;;;;;;5.30;3.03;;;;;;;10.11;56.38;101134.88;688417;28;1220;-95
2023/10/15 00:51:29;;;;;;;6.47;2.88;;;;;;;10.27;56.35;101162.47;691215;28;1184;-94
2023/10/15 00:51:51;;;;;;;5.80;2.65;;;;;;;10.21;56.57;101157.84;694284;28;1207;-93
2023/10/15 00:52:12;;;;;;;5.15;2.42;;;;;;;10.21;56.46;101156.97;688760;28;1303;-93
2023/10/15 00:52:37;;;;;;;5.22;2.50;;;;;;;10.22;56.59;101153.53;688834;28;1210;-94
2023/10/15 00:53:05;;;;;;;9.93;2.85;;;;;;;10.13;56.49;101138.44;694300;28;1311;-93
2023/10/15 00:53:29;;;;;;;12.95;3.10;;;;;;;10.20;57.01;101153.47;691476;28;1039;-92
2023/10/15 00:53:58;;;;;;;12.65;3.30;;;;;;;10.14;56.90;101130.66;686242;28;1346;-94
2023/10/15 00:54:21;;;;;;;7.60;3.22;;;;;;;10.28;57.04;101148.56;691585;28;1349;-93
2023/10/15 00:54:42;;;;;;;12.18;4.20;;;;;;;10.28;56.78;101140.75;691519;28;1379;-93
2023/10/15 00:55:05;;;;;;;15.40;4.43;;;;;;;10.27;57.07;101123.31;691292;28;1222;-93
2023/10/15 00:55:28;;;;;;;19.85;4.95;;;;;;;10.35;57.35;101124.47;688865;28;1250;-94
2023/10/15 00:56:10;;;;;;;18.65;4.85;;;;;;;10.40;57.29;101108.97;691726;28;1284;-93
2023/10/15 00:56:33;;;;;;;14.85;6.00;;;;;;;10.50;57.00;101094.53;697188;28;1235;-95
2023/10/15 00:56:55;;;;;;;12.70;6.10;;;;;;;10.60;57.31;101107.03;686394;28;1347;-93
2023/10/15 00:57:41;;;;;;;10.20;5.50;;;;;;;10.67;57.05;101101.19;688908;28;1203;-95
2023/10/15 00:57:57;;;;;;;10.60;4.90;;;;;;;10.65;56.83;101089.81;691390;28;1269;-95
2023/10/15 00:59:45;;;;;;;13.45;6.45;;;;;;;10.87;56.87;101108.78;685933;28;1252;-92
2023/10/15 01:00:08;;;;;;;17.42;6.32;;;;;;;10.86;56.35;101107.00;687692;28;1367;-94
2023/10/15 01:00:52;;;;;;;15.38;6.15;;;;;;;10.82;56.32;101095.56;686150;28;1224;-93
2023/10/15 01:05:00;;;;;;;14.27;6.30;;;;;;;10.60;55.66;101120.09;691475;28;1372;-93
2023/10/15 01:05:21;;;;;;;12.73;5.72;;;;;;;10.59;55.68;101127.84;683208;28;1201;-95
2023/10/15 01:05:52;;;;;;;11.73;5.70;;;;;;;10.55;55.64;101125.16;680653;29;1590;-93
2023/10/15 01:06:14;;;;;;;10.50;5.85;;;;;;;10.50;56.10;101133.69;688668;28;1268;-94
2023/10/15 01:06:37;;;;;;;10.93;5.60;;;;;;;10.52;55.91;101129.38;691326;28;1456;-96
2023/10/15 01:07:04;;;;;;;11.90;5.80;;;;;;;10.52;56.10;101124.16;691528;28;1370;-92
2023/10/15 01:07:43;;;;;;;11.07;5.95;;;;;;;10.46;56.24;101122.25;691485;28;1397;-95
2023/10/15 01:08:05;;;;;;;14.90;6.18;;;;;;;10.52;56.45;101132.00;683518;28;1382;-94
2023/10/15 01:08:32;;;;;;;14.93;6.30;;;;;;;10.51;56.28;101125.88;694057;28;1352;-92
2023/10/15 01:08:53;;;;;;;9.88;5.97;;;;;;;10.45;56.61;101110.00;694253;28;1235;-94
2023/10/15 01:09:27;;;;;;;10.10;6.00;;;;;;;10.56;56.80;101133.84;688946;28;1232;-93
2023/10/15 01:09:48;;;;;;;10.85;6.10;;;;;;;10.53;56.96;101118.09;694666;28;1289;-95
2023/10/15 01:10:19;;;;;;;11.32;6.30;;;;;;;10.58;57.08;101111.34;694113;28;1208;-95
2023/10/15 01:10:42;;;;;;;9.93;6.40;;;;;;;10.59;57.04;101106.97;688485;28;1471;-94
2023/10/15 01:11:19;;;;;;;9.52;6.10;;;;;;;10.69;56.98;101115.16;691681;28;1334;-95
2023/10/15 01:11:51;;;;;;;11.15;6.45;;;;;;;10.66;56.92;101099.41;691652;28;1285;-93
2023/10/15 01:12:30;;;;;;;14.32;6.90;;;;;;;10.73;56.81;101105.72;691529;28;1394;-95
2023/10/15 01:12:52;;;;;;;14.05;6.85;;;;;;;10.82;56.86;101105.16;691460;28;1339;-93
2023/10/15 01:13:21;;;;;;;11.70;6.45;;;;;;;10.77;56.59;101096.25;696855;28;1231;-94
2023/10/15 01:13:42;;;;;;;12.45;6.57;;;;;;;10.83;56.77;101109.53;688663;28;1286;-92
2023/10/15 01:14:03;;;;;;;13.25;6.70;;;;;;;10.78;56.46;101101.53;691446;28;1336;-95
2023/10/15 01:14:38;;;;;;;13.00;7.10;;;;;;;10.87;56.96;101127.03;691360;28;1250;-93
2023/10/15 01:14:59;;;;;;;10.23;6.80;;;;;;;10.85;56.96;101120.91;691612;28;1371;-96
2023/10/15 01:15:20;;;;;;;12.10;6.60;;;;;;;10.85;56.91;101113.06;691384;28;1216;-96
2023/10/15 01:15:42;;;;;;;12.40;6.40;;;;;;;10.94;56.81;101121.19;688646;28;1362;-95
2023/10/15 01:16:05;;;;;;;14.07;6.85;;;;;;;10.92;56.76;101112.44;694263;28;1295;-94
2023/10/15 01:16:31;;;;;;;18.00;6.78;;;;;;;10.95;56.49;101114.25;696761;28;1283;-94
2023/10/15 01:16:53;;;;;;;18.08;6.78;;;;;;;10.99;56.28;101123.06;690709;28;1344;-94
2023/10/15 01:17:14;;;;;;;17.50;6.85;;;;;;;10.99;56.35;101117.84;688610;28;1316;-92
2023/10/15 01:17:37;;;;;;;12.23;6.78;;;;;;;10.99;56.14;101117.84;688635;28;1206;-93
2023/10/15 01:18:07;;;;;;;11.30;6.15;;;;;;;10.97;56.10;101116.09;691481;28;1381;-92
2023/10/15 01:18:28;;;;;;;16.55;6.20;;;;;;;10.93;56.06;101113.28;693691;28;1253;-92
2023/10/15 01:19:05;;;;;;;15.63;6.13;;;;;;;10.92;56.12;101112.44;688291;28;1248;-93
2023/10/15 01:19:33;;;;;;;11.00;5.90;;;;;;;10.93;55.96;101121.13;691470;28;1146;-93
2023/10/15 01:19:53;;;;;;;11.38;6.55;;;;;;;10.87;56.03;101115.75;691416;28;1243;-94
2023/10/15 01:20:18;;;;;;;11.80;6.60;;;;;;;10.85;55.98;101114.78;696728;28;1257;-93
2023/10/15 01:20:42;;;;;;;11.52;6.53;;;;;;;10.88;55.99;101113.16;688884;28;1423;-93
2023/10/15 01:21:05;;;;;;;12.80;6.90;;;;;;;10.78;55.96;101103.25;683338;28;1297;-94
2023/10/15 01:21:29;;;;;;;12.60;7.10;;;;;;;10.86;56.24;101108.75;691478;28;1452;-92
2023/10/15 01:21:57;;;;;;;14.63;6.93;;;;;;;10.82;55.91;101106.00;691463;28;1258;-93
2023/10/15 01:22:20;;;;;;;15.88;6.57;;;;;;;10.79;56.01;101103.31;686339;28;1225;-94
2023/10/15 01:22:41;;;;;;;11.75;6.40;;;;;;;10.82;56.04;101110.38;691369;28;1551;-92
2023/10/15 01:23:02;;;;;;;13.95;6.38;;;;;;;10.82;55.99;101105.16;688730;28;1269;-93
2023/10/15 01:23:28;;;;;;;11.02;6.25;;;;;;;10.81;56.33;101098.13;685738;28;2008;-92
2023/10/15 01:24:04;;;;;;;13.07;6.50;;;;;;;10.84;56.08;101098.25;691458;28;1235;-92
2023/10/15 01:24:26;;;;;;;12.35;6.28;;;;;;;10.81;56.33;101093.81;694318;28;1309;-92
2023/10/15 01:24:50;;;;;;;11.93;6.30;;;;;;;10.86;56.26;101098.31;686047;28;1272;-93
2023/10/15 01:25:32;;;;;;;14.43;6.47;;;;;;;10.78;56.35;101082.38;692121;28;1254;-93
2023/10/15 01:25:52;;;;;;;14.65;7.00;;;;;;;10.75;56.17;101083.16;688951;28;1298;-94
2023/10/15 01:26:23;;;;;;;13.90;6.83;;;;;;;10.79;56.45;101074.59;691551;28;1196;-92
2023/10/15 01:26:51;;;;;;;14.10;6.78;;;;;;;10.89;56.35;101094.06;688811;28;1285;-91
2023/10/15 01:27:12;;;;;;;11.38;6.50;;;;;;;10.94;56.40;101097.69;689087;28;1242;-92
2023/10/15 01:27:32;;;;;;;11.30;6.30;;;;;;;10.85;56.01;101080.84;689300;28;1292;-93
2023/10/15 01:27:56;;;;;;;10.82;6.40;;;;;;;10.97;56.30;101099.50;694911;28;1254;-94
2023/10/15 01:28:17;;;;;;;12.38;6.80;;;;;;;10.95;56.28;101106.41;691238;28;1409;-95
2023/10/15 01:28:38;;;;;;;11.67;6.53;;;;;;;10.93;56.38;101097.63;688563;28;1256;-94
2023/10/15 01:28:58;;;;;;;9.80;6.67;;;;;;;10.94;56.38;101109.88;694414;28;1184;-93
2023/10/15 01:29:23;;;;;;;9.82;6.47;;;;;;;11.00;56.44;101117.88;694462;28;1205;-94
2023/10/15 01:29:47;;;;;;;14.25;6.70;;;;;;;10.92;56.68;101107.22;694124;28;1192;-95
2023/10/15 01:30:10;;;;;;;16.98;7.03;;;;;;;10.95;56.06;101115.13;691426;28;1281;-93
2023/10/15 01:30:35;;;;;;;17.23;7.40;;;;;;;10.90;56.43;101108.88;691288;28;1347;-93
2023/10/15 01:31:00;;;;;;;14.18;7.15;;;;;;;10.94;56.43;101107.25;688764;28;1457;-92
2023/10/15 01:31:24;;;;;;;15.55;6.72;;;;;;;10.90;56.24;101116.72;694092;28;1357;-92
2023/10/15 01:31:51;;;;;;;16.25;6.57;;;;;;;10.93;56.19;101119.41;688595;28;1366;-93
2023/10/15 01:32:30;;;;;;;12.27;5.93;;;;;;;10.88;56.06;101113.16;686046;28;1400;-95
2023/10/15 01:32:52;;;;;;;9.27;6.53;;;;;;;10.93;56.58;101122.03;696766;28;1250;-92
2023/10/15 01:33:12;;;;;;;10.88;6.70;;;;;;;10.95;56.39;101130.78;696872;28;1176;-95
2023/10/15 01:33:49;;;;;;;10.82;6.10;;;;;;;10.99;56.51;101128.28;691342;28;1246;-93
2023/10/15 01:34:10;;;;;;;10.20;6.30;;;;;;;10.99;56.48;101139.63;691191;28;1509;-94
2023/10/15 01:34:37;;;;;;;8.80;6.13;;;;;;;10.97;56.25;101136.97;694178;28;1168;-93
2023/10/15 01:34:59;;;;;;;10.00;6.30;;;;;;;10.99;56.25;101138.75;694232;28;1343;-94
2023/10/15 01:35:20;;;;;;;9.52;6.05;;;;;;;11.03;56.57;101146.72;696946;28;1299;-95
2023/10/15 01:35:44;;;;;;;12.23;6.00;;;;;;;11.03;56.81;101140.59;696923;28;1403;-96
2023/10/15 01:36:06;;;;;;;12.35;5.80;;;;;;;11.08;56.59;101144.25;688795;28;1270;-93
2023/10/15 01:36:30;;;;;;;14.60;6.35;;;;;;;11.09;56.62;101146.94;691273;28;1379;-92
2023/10/15 01:36:57;;;;;;;11.40;6.80;;;;;;;11.08;56.71;101141.66;695974;28;1260;-96
2023/10/15 01:37:57;;;;;;;16.33;6.47;;;;;;;11.07;56.75;101142.50;694217;28;1236;-93
2023/10/15 01:38:26;;;;;;;17.75;6.72;;;;;;;11.26;56.72;101154.41;696725;28;1303;-95
2023/10/15 01:38:57;;;;;;;15.15;6.90;;;;;;;11.21;56.70;101146.44;696876;28;1264;-93
2023/10/15 01:40:05;;;;;;;18.02;6.97;;;;;;;11.28;56.66;101146.59;696677;28;1227;-94
2023/10/15 01:40:41;;;;;;;16.65;7.20;;;;;;;11.28;56.48;101131.81;694096;28;1375;-94
2023/10/15 01:41:04;;;;;;;13.20;7.00;;;;;;;11.39;56.71;101147.84;691061;28;1198;-92
2023/10/15 01:41:28;;;;;;;13.23;7.10;;;;;;;11.32;56.58;101117.13;696675;28;1419;-92
2023/10/15 01:41:50;;;;;;;14.77;7.20;;;;;;;11.38;56.46;101122.53;696337;28;1256;-96
2023/10/15 01:42:31;;;;;;;20.25;7.07;;;;;;;11.34;56.42;101115.44;694001;28;1290;-94
2023/10/15 01:42:54;;;;;;;18.17;7.35;;;;;;;11.45;56.65;101137.56;691420;28;1421;-96
2023/10/15 01:43:15;;;;;;;14.93;7.55;;;;;;;11.45;56.57;101127.13;696839;28;1967;-93
2023/10/15 01:43:37;;;;;;;14.18;7.13;;;;;;;11.43;56.49;101118.31;699639;28;1265;-96
2023/10/15 01:43:59;;;;;;;17.55;7.28;;;;;;;11.48;56.29;101123.69;694253;28;1342;-95
2023/10/15 01:44:20;;;;;;;16.45;7.28;;;;;;;11.52;56.43;101125.56;694314;28;1250;-94
2023/10/15 01:44:47;;;;;;;17.33;7.55;;;;;;;11.43;56.46;101120.06;694050;28;1349;-93
2023/10/15 01:45:38;;;;;;;11.02;6.70;;;;;;;11.40;56.79;101128.69;693725;28;1215;-95
2023/10/15 01:46:00;;;;;;;10.32;6.03;;;;;;;11.43;56.41;101126.16;696960;28;1246;-94
2023/10/15 01:46:40;;;;;;;13.60;6.15;;;;;;;11.41;56.46;101122.63;693899;28;1098;-96
2023/10/15 01:47:35;;;;;;;12.52;6.68;;;;;;;11.53;56.39;101140.41;698715;28;1265;-92
2023/10/15 01:48:05;;;;;;;13.30;6.90;;;;;;;11.46;56.45;101125.38;696899;28;1143;-95
2023/10/15 01:48:30;;;;;;;12.85;6.90;;;;;;;11.54;56.33;101130.84;688617;28;1577;-92
2023/10/15 01:48:51;;;;;;;12.77;6.97;;;;;;;11.48;56.28;101116.75;691331;28;1231;-96
2023/10/15 01:49:17;;;;;;;11.57;6.82;;;;;;;11.57;56.18;101130.94;693981;28;1154;-94
2023/10/15 01:49:38;;;;;;;14.82;7.30;;;;;;;11.63;56.16;101129.38;693675;28;1421;-96
2023/10/15 01:50:00;;;;;;;13.50;6.90;;;;;;;11.58;56.14;101119.63;694257;28;1212;-94
2023/10/15 01:50:24;;;;;;;11.63;6.57;;;;;;;11.70;56.23;101146.19;694128;28;1394;-93
2023/10/15 01:50:51;;;;;;;12.65;6.28;;;;;;;11.62;56.15;101131.97;691460;28;1280;-95
2023/10/15 01:51:16;;;;;;;16.33;6.78;;;;;;;11.64;56.06;101130.28;691440;28;1295;-95
2023/10/15 01:51:41;;;;;;;14.77;6.43;;;;;;;11.57;56.00;101115.25;696840;28;1375;-95
2023/10/15 01:52:09;;;;;;;12.35;6.57;;;;;;;11.66;56.02;101126.00;694229;28;1270;-93
2023/10/15 01:52:32;;;;;;;13.73;6.97;;;;;;;11.69;55.90;101127.81;696900;28;1409;-93
2023/10/15 01:53:01;;;;;;;14.50;6.60;;;;;;;11.56;56.08;101116.09;693993;28;1266;-94
2023/10/15 01:53:23;;;;;;;13.80;6.03;;;;;;;11.61;56.01;101130.19;690578;28;1272;-94
2023/10/15 01:53:45;;;;;;;15.18;5.90;;;;;;;11.54;56.24;101125.63;691237;28;1213;-93
2023/10/15 01:54:09;;;;;;;13.82;6.10;;;;;;;11.54;55.94;101110.81;694234;28;1612;-95
2023/10/15 01:54:31;;;;;;;15.05;6.38;;;;;;;11.56;56.18;101131.78;699395;28;1350;-95
2023/10/15 01:54:53;;;;;;;15.10;6.20;;;;;;;11.56;55.88;101121.31;694367;28;1270;-94
2023/10/15 01:55:14;;;;;;;12.77;5.93;;;;;;;11.62;55.86;101132.81;699158;28;1251;-93
2023/10/15 01:55:52;;;;;;;12.38;5.70;;;;;;;11.55;56.17;101130.00;699130;28;1290;-96
2023/10/15 01:56:17;;;;;;;9.20;5.53;;;;;;;11.58;55.80;101125.75;691153;28;1318;-92
2023/10/15 01:56:39;;;;;;;10.75;5.47;;;;;;;11.54;55.67;101115.16;696893;28;1350;-94
2023/10/15 01:57:00;;;;;;;11.68;5.43;;;;;;;11.64;56.04;101135.50;696944;28;1265;-93
2023/10/15 01:57:22;;;;;;;13.15;5.63;;;;;;;11.57;55.88;101115.25;688632;28;1307;-92
2023/10/15 01:57:43;;;;;;;11.68;5.63;;;;;;;11.62;55.84;101130.22;688695;28;1234;-94
2023/10/15 01:58:05;;;;;;;13.93;5.95;;;;;;;11.54;55.91;101126.50;688435;28;1362;-93
2023/10/15 01:58:32;;;;;;;12.73;5.72;;;;;;;11.54;56.03;101128.22;694130;28;1316;-94
2023/10/15 01:58:55;;;;;;;12.18;5.80;;;;;;;11.54;55.93;101128.22;696266;28;1307;-96
2023/10/15 01:59:16;;;;;;;11.95;5.63;;;;;;;11.57;55.85;101129.22;691332;28;1322;-95
2023/10/15 01:59:45;;;;;;;10.88;5.70;;;;;;;11.47;56.17;101125.44;696778;28;1228;-95
2023/10/15 02:00:50;;;;;;;11.13;5.05;;;;;;;11.44;56.08;101122.69;688546;28;1234;-93
2023/10/15 02:01:21;;;;;;;12.05;5.68;;;;;;;11.48;55.95;101129.81;688479;28;1223;-93
2023/10/15 02:01:49;;;;;;;11.55;5.55;;;;;;;11.56;56.11;101131.78;693968;28;1317;-94
2023/10/15 02:02:13;;;;;;;10.60;5.10;;;;;;;11.58;55.99;101130.09;696739;28;1320;-96